sensor_id;sensor_type;location;lat;lon;timestamp;P1;durP1;ratioP1;P2;durP2;ratioP2
35304;SDS011;26433;48.034;-1.764;2023-02-11T06:04:13;8.02;;;3.40;;
35304;SDS011;26433;48.034;-1.764;2023-02-11T06:09:16;6.93;;;3.30;;
35304;SDS011;26433;48.034;-1.764;2023-02-11T06:14:20;6.57;;;3.20;;
35304;SDS011;26433;48.034;-1.764;2023-02-11T06:19:26;9.43;;;3.33;;
35304;SDS011;26433;48.034;-1.764;2023-02-11T06:24:29;10.80;;;3.75;;
35304;SDS011;26433;48.034;-1.764;2023-02-11T06:29:53;8.30;;;3.23;;
35304;SDS011;26433;48.034;-1.764;2023-02-11T06:34:58;8.80;;;3.75;;
35304;SDS011;26433;48.034;-1.764;2023-02-11T06:40:02;8.82;;;3.50;;
35304;SDS011;26433;48.034;-1.764;2023-02-11T06:45:06;6.60;;;3.30;;
35304;SDS011;26433;48.034;-1.764;2023-02-11T06:50:13;9.60;;;3.75;;
35304;SDS011;26433;48.034;-1.764;2023-02-11T06:55:17;10.45;;;4.35;;
35304;SDS011;26433;48.034;-1.764;2023-02-11T07:00:20;8.18;;;3.58;;
35304;SDS011;26433;48.034;-1.764;2023-02-11T07:05:26;12.98;;;4.00;;
35304;SDS011;26433;48.034;-1.764;2023-02-11T07:10:29;10.95;;;4.03;;
35304;SDS011;26433;48.034;-1.764;2023-02-11T07:15:35;10.38;;;4.07;;
35304;SDS011;26433;48.034;-1.764;2023-02-11T07:20:40;14.00;;;4.82;;
35304;SDS011;26433;48.034;-1.764;2023-02-11T07:25:44;11.05;;;3.87;;
35304;SDS011;26433;48.034;-1.764;2023-02-11T07:30:48;23.52;;;9.32;;
35304;SDS011;26433;48.034;-1.764;2023-02-11T07:35:53;10.85;;;4.28;;
35304;SDS011;26433;48.034;-1.764;2023-02-11T07:40:58;8.65;;;4.20;;
35304;SDS011;26433;48.034;-1.764;2023-02-11T07:46:03;12.15;;;4.30;;
35304;SDS011;26433;48.034;-1.764;2023-02-11T07:51:09;9.02;;;4.53;;
35304;SDS011;26433;48.034;-1.764;2023-02-11T07:56:15;8.57;;;4.55;;
35304;SDS011;26433;48.034;-1.764;2023-02-11T08:01:20;9.23;;;4.12;;
35304;SDS011;26433;48.034;-1.764;2023-02-11T08:06:28;10.15;;;4.70;;
35304;SDS011;26433;48.034;-1.764;2023-02-11T08:11:35;8.70;;;4.20;;
35304;SDS011;26433;48.034;-1.764;2023-02-11T08:16:39;8.15;;;4.25;;
35304;SDS011;26433;48.034;-1.764;2023-02-11T08:26:48;9.50;;;4.32;;
35304;SDS011;26433;48.034;-1.764;2023-02-11T08:31:51;12.02;;;5.28;;
35304;SDS011;26433;48.034;-1.764;2023-02-11T08:36:57;12.13;;;4.07;;
35304;SDS011;26433;48.034;-1.764;2023-02-11T08:42:00;10.68;;;4.07;;
35304;SDS011;26433;48.034;-1.764;2023-02-11T08:47:04;13.52;;;4.30;;
35304;SDS011;26433;48.034;-1.764;2023-02-11T08:52:09;19.42;;;7.03;;
35304;SDS011;26433;48.034;-1.764;2023-02-11T08:57:13;9.27;;;4.45;;
35304;SDS011;26433;48.034;-1.764;2023-02-11T09:02:16;7.57;;;3.87;;
35304;SDS011;26433;48.034;-1.764;2023-02-11T09:07:21;13.40;;;4.15;;
35304;SDS011;26433;48.034;-1.764;2023-02-11T09:12:25;9.75;;;3.83;;
35304;SDS011;26433;48.034;-1.764;2023-02-11T09:17:29;7.62;;;3.62;;
35304;SDS011;26433;48.034;-1.764;2023-02-11T09:22:34;11.63;;;4.47;;
35304;SDS011;26433;48.034;-1.764;2023-02-11T09:27:38;9.35;;;3.72;;
35304;SDS011;26433;48.034;-1.764;2023-02-11T09:32:41;6.87;;;3.20;;
35304;SDS011;26433;48.034;-1.764;2023-02-11T09:37:46;7.95;;;3.15;;
35304;SDS011;26433;48.034;-1.764;2023-02-11T09:42:51;8.18;;;3.70;;
35304;SDS011;26433;48.034;-1.764;2023-02-11T09:48:07;9.25;;;3.72;;
35304;SDS011;26433;48.034;-1.764;2023-02-11T09:53:19;12.10;;;4.37;;
35304;SDS011;26433;48.034;-1.764;2023-02-11T09:58:26;9.00;;;4.22;;
35304;SDS011;26433;48.034;-1.764;2023-02-11T10:03:37;10.52;;;4.50;;
35304;SDS011;26433;48.034;-1.764;2023-02-11T10:08:52;9.35;;;4.03;;
35304;SDS011;26433;48.034;-1.764;2023-02-11T10:14:09;13.65;;;3.97;;
35304;SDS011;26433;48.034;-1.764;2023-02-11T10:19:42;9.25;;;4.15;;
35304;SDS011;26433;48.034;-1.764;2023-02-11T10:24:58;12.05;;;3.50;;
35304;SDS011;26433;48.034;-1.764;2023-02-11T10:30:09;8.07;;;3.87;;
35304;SDS011;26433;48.034;-1.764;2023-02-11T10:40:30;10.25;;;3.12;;
35304;SDS011;26433;48.034;-1.764;2023-02-11T10:45:35;13.25;;;4.10;;
35304;SDS011;26433;48.034;-1.764;2023-02-11T10:50:41;11.07;;;4.25;;
35304;SDS011;26433;48.034;-1.764;2023-02-11T10:55:50;10.93;;;3.70;;
35304;SDS011;26433;48.034;-1.764;2023-02-11T11:00:57;11.80;;;4.35;;
35304;SDS011;26433;48.034;-1.764;2023-02-11T11:06:02;12.27;;;4.68;;
35304;SDS011;26433;48.034;-1.764;2023-02-11T11:11:12;12.52;;;4.00;;
35304;SDS011;26433;48.034;-1.764;2023-02-11T11:16:18;8.75;;;4.15;;
35304;SDS011;26433;48.034;-1.764;2023-02-11T11:21:24;11.00;;;4.05;;
35304;SDS011;26433;48.034;-1.764;2023-02-11T11:26:39;12.10;;;4.28;;
35304;SDS011;26433;48.034;-1.764;2023-02-11T11:31:46;9.32;;;3.58;;
35304;SDS011;26433;48.034;-1.764;2023-02-11T11:36:53;8.20;;;3.90;;
35304;SDS011;26433;48.034;-1.764;2023-02-11T11:42:00;10.77;;;4.55;;
35304;SDS011;26433;48.034;-1.764;2023-02-11T11:47:11;11.02;;;4.40;;
35304;SDS011;26433;48.034;-1.764;2023-02-11T11:52:28;10.82;;;4.53;;
35304;SDS011;26433;48.034;-1.764;2023-02-11T11:57:41;10.95;;;4.93;;
35304;SDS011;26433;48.034;-1.764;2023-02-11T12:08:23;11.48;;;4.95;;
35304;SDS011;26433;48.034;-1.764;2023-02-11T12:13:46;8.90;;;5.00;;
35304;SDS011;26433;48.034;-1.764;2023-02-11T12:19:24;11.07;;;5.87;;
35304;SDS011;26433;48.034;-1.764;2023-02-11T12:24:51;8.35;;;4.50;;
35304;SDS011;26433;48.034;-1.764;2023-02-11T12:30:03;11.73;;;4.97;;
35304;SDS011;26433;48.034;-1.764;2023-02-11T12:35:24;6.72;;;4.28;;
35304;SDS011;26433;48.034;-1.764;2023-02-11T12:40:35;7.00;;;4.20;;
35304;SDS011;26433;48.034;-1.764;2023-02-11T12:45:56;6.70;;;3.97;;
35304;SDS011;26433;48.034;-1.764;2023-02-11T12:51:14;8.30;;;4.12;;
35304;SDS011;26433;48.034;-1.764;2023-02-11T12:56:27;7.62;;;4.12;;
35304;SDS011;26433;48.034;-1.764;2023-02-11T13:01:41;8.63;;;4.20;;
35304;SDS011;26433;48.034;-1.764;2023-02-11T13:06:48;10.07;;;4.35;;
35304;SDS011;26433;48.034;-1.764;2023-02-11T13:11:56;17.30;;;4.97;;
35304;SDS011;26433;48.034;-1.764;2023-02-11T13:17:25;6.50;;;4.43;;
35304;SDS011;26433;48.034;-1.764;2023-02-11T13:22:36;9.32;;;3.83;;
35304;SDS011;26433;48.034;-1.764;2023-02-11T13:27:46;6.45;;;4.10;;
35304;SDS011;26433;48.034;-1.764;2023-02-11T13:33:16;8.18;;;4.20;;
35304;SDS011;26433;48.034;-1.764;2023-02-11T13:38:34;8.30;;;4.07;;
35304;SDS011;26433;48.034;-1.764;2023-02-11T13:43:39;6.53;;;4.20;;
35304;SDS011;26433;48.034;-1.764;2023-02-11T13:48:46;5.47;;;3.95;;
35304;SDS011;26433;48.034;-1.764;2023-02-11T13:53:53;7.22;;;3.67;;
35304;SDS011;26433;48.034;-1.764;2023-02-11T13:59:00;5.53;;;3.65;;
35304;SDS011;26433;48.034;-1.764;2023-02-11T14:04:19;5.87;;;3.65;;
35304;SDS011;26433;48.034;-1.764;2023-02-11T14:09:41;6.43;;;4.10;;
35304;SDS011;26433;48.034;-1.764;2023-02-11T14:20:35;5.28;;;3.72;;
35304;SDS011;26433;48.034;-1.764;2023-02-11T14:25:50;5.03;;;3.10;;
35304;SDS011;26433;48.034;-1.764;2023-02-11T14:31:06;3.78;;;2.78;;
35304;SDS011;26433;48.034;-1.764;2023-02-11T14:36:22;8.32;;;2.65;;
35304;SDS011;26433;48.034;-1.764;2023-02-11T14:41:38;5.60;;;2.50;;
35304;SDS011;26433;48.034;-1.764;2023-02-11T14:46:44;4.47;;;2.50;;
35304;SDS011;26433;48.034;-1.764;2023-02-11T14:51:50;2.85;;;2.40;;
35304;SDS011;26433;48.034;-1.764;2023-02-11T14:57:05;3.58;;;2.40;;
35304;SDS011;26433;48.034;-1.764;2023-02-11T15:07:37;3.00;;;2.58;;
35304;SDS011;26433;48.034;-1.764;2023-02-11T15:12:46;3.35;;;2.45;;
35304;SDS011;26433;48.034;-1.764;2023-02-11T15:17:51;2.85;;;2.12;;
35304;SDS011;26433;48.034;-1.764;2023-02-11T15:22:57;2.97;;;1.73;;
35304;SDS011;26433;48.034;-1.764;2023-02-11T15:28:09;3.37;;;1.87;;
35304;SDS011;26433;48.034;-1.764;2023-02-11T15:33:21;4.50;;;2.05;;
35304;SDS011;26433;48.034;-1.764;2023-02-11T15:38:28;2.97;;;2.28;;
35304;SDS011;26433;48.034;-1.764;2023-02-11T15:43:42;2.97;;;2.33;;
35304;SDS011;26433;48.034;-1.764;2023-02-11T15:48:47;5.32;;;2.75;;
35304;SDS011;26433;48.034;-1.764;2023-02-11T15:53:54;4.22;;;2.08;;
35304;SDS011;26433;48.034;-1.764;2023-02-11T15:59:07;5.47;;;2.75;;
35304;SDS011;26433;48.034;-1.764;2023-02-11T16:04:15;3.67;;;2.20;;
35304;SDS011;26433;48.034;-1.764;2023-02-11T16:09:30;2.62;;;1.67;;
35304;SDS011;26433;48.034;-1.764;2023-02-11T16:14:35;2.97;;;1.83;;
35304;SDS011;26433;48.034;-1.764;2023-02-11T16:19:42;3.17;;;1.90;;
35304;SDS011;26433;48.034;-1.764;2023-02-11T16:24:48;2.75;;;1.98;;
35304;SDS011;26433;48.034;-1.764;2023-02-11T16:29:55;4.78;;;1.95;;
35304;SDS011;26433;48.034;-1.764;2023-02-11T16:35:03;2.30;;;1.77;;
35304;SDS011;26433;48.034;-1.764;2023-02-11T16:40:14;3.50;;;2.42;;
35304;SDS011;26433;48.034;-1.764;2023-02-11T16:45:18;3.78;;;2.35;;
35304;SDS011;26433;48.034;-1.764;2023-02-11T16:50:22;3.17;;;1.83;;
35304;SDS011;26433;48.034;-1.764;2023-02-11T16:55:28;3.78;;;2.20;;
35304;SDS011;26433;48.034;-1.764;2023-02-11T17:00:33;5.55;;;2.25;;
35304;SDS011;26433;48.034;-1.764;2023-02-11T17:05:38;4.65;;;1.98;;
35304;SDS011;26433;48.034;-1.764;2023-02-11T17:11:00;5.70;;;2.37;;
35304;SDS011;26433;48.034;-1.764;2023-02-11T17:16:04;3.33;;;1.98;;
35304;SDS011;26433;48.034;-1.764;2023-02-11T17:21:12;4.43;;;2.08;;
35304;SDS011;26433;48.034;-1.764;2023-02-11T17:31:21;10.32;;;2.90;;
35304;SDS011;26433;48.034;-1.764;2023-02-11T17:36:25;5.70;;;2.20;;
35304;SDS011;26433;48.034;-1.764;2023-02-11T17:41:31;3.40;;;1.70;;
35304;SDS011;26433;48.034;-1.764;2023-02-11T17:46:35;6.78;;;2.25;;
35304;SDS011;26433;48.034;-1.764;2023-02-11T17:51:38;4.87;;;2.10;;
35304;SDS011;26433;48.034;-1.764;2023-02-11T17:56:44;4.57;;;1.90;;
35304;SDS011;26433;48.034;-1.764;2023-02-11T18:01:51;3.90;;;2.03;;
35304;SDS011;26433;48.034;-1.764;2023-02-11T18:06:55;3.67;;;1.97;;
35304;SDS011;26433;48.034;-1.764;2023-02-11T18:12:00;3.97;;;1.80;;
35304;SDS011;26433;48.034;-1.764;2023-02-11T18:17:04;4.20;;;1.80;;
35304;SDS011;26433;48.034;-1.764;2023-02-11T18:22:08;3.42;;;1.83;;
35304;SDS011;26433;48.034;-1.764;2023-02-11T18:27:13;5.57;;;2.03;;
35304;SDS011;26433;48.034;-1.764;2023-02-11T18:32:17;5.40;;;2.58;;
35304;SDS011;26433;48.034;-1.764;2023-02-11T18:37:21;4.87;;;2.03;;
35304;SDS011;26433;48.034;-1.764;2023-02-11T18:42:26;7.37;;;2.60;;
35304;SDS011;26433;48.034;-1.764;2023-02-11T18:47:30;6.35;;;2.40;;
35304;SDS011;26433;48.034;-1.764;2023-02-11T18:52:34;5.03;;;2.10;;
35304;SDS011;26433;48.034;-1.764;2023-02-11T18:57:40;3.65;;;2.08;;
35304;SDS011;26433;48.034;-1.764;2023-02-11T19:02:44;6.10;;;2.12;;
35304;SDS011;26433;48.034;-1.764;2023-02-11T19:07:48;3.00;;;1.63;;
35304;SDS011;26433;48.034;-1.764;2023-02-11T19:12:53;5.40;;;2.27;;
35304;SDS011;26433;48.034;-1.764;2023-02-11T19:18:01;4.07;;;2.10;;
35304;SDS011;26433;48.034;-1.764;2023-02-11T19:23:05;3.42;;;1.67;;
35304;SDS011;26433;48.034;-1.764;2023-02-11T19:28:10;3.70;;;2.07;;
35304;SDS011;26433;48.034;-1.764;2023-02-11T19:33:14;3.72;;;1.77;;
35304;SDS011;26433;48.034;-1.764;2023-02-11T19:38:18;4.03;;;2.10;;
35304;SDS011;26433;48.034;-1.764;2023-02-11T19:43:24;5.25;;;2.25;;
35304;SDS011;26433;48.034;-1.764;2023-02-11T19:48:27;4.28;;;2.20;;
35304;SDS011;26433;48.034;-1.764;2023-02-11T19:53:31;4.87;;;2.07;;
35304;SDS011;26433;48.034;-1.764;2023-02-11T19:58:37;3.63;;;1.97;;
35304;SDS011;26433;48.034;-1.764;2023-02-11T20:03:41;3.95;;;1.98;;
35304;SDS011;26433;48.034;-1.764;2023-02-11T20:08:45;5.53;;;1.95;;
35304;SDS011;26433;48.034;-1.764;2023-02-11T20:13:50;9.73;;;4.07;;
35304;SDS011;26433;48.034;-1.764;2023-02-11T20:18:54;5.62;;;2.10;;
35304;SDS011;26433;48.034;-1.764;2023-02-11T20:23:58;6.82;;;3.08;;
35304;SDS011;26433;48.034;-1.764;2023-02-11T20:29:03;5.90;;;2.72;;
35304;SDS011;26433;48.034;-1.764;2023-02-11T20:34:07;5.70;;;1.98;;
35304;SDS011;26433;48.034;-1.764;2023-02-11T20:39:12;7.57;;;2.92;;
35304;SDS011;26433;48.034;-1.764;2023-02-11T20:44:19;4.32;;;2.30;;
35304;SDS011;26433;48.034;-1.764;2023-02-11T20:49:23;7.28;;;2.20;;
35304;SDS011;26433;48.034;-1.764;2023-02-11T20:54:29;3.08;;;1.73;;
35304;SDS011;26433;48.034;-1.764;2023-02-11T20:59:34;10.02;;;2.65;;
35304;SDS011;26433;48.034;-1.764;2023-02-11T21:04:37;7.82;;;2.60;;
35304;SDS011;26433;48.034;-1.764;2023-02-11T21:09:41;7.03;;;2.78;;
35304;SDS011;26433;48.034;-1.764;2023-02-11T21:14:46;9.17;;;2.53;;
35304;SDS011;26433;48.034;-1.764;2023-02-11T21:19:50;3.87;;;2.62;;
35304;SDS011;26433;48.034;-1.764;2023-02-11T21:24:54;6.43;;;2.70;;
35304;SDS011;26433;48.034;-1.764;2023-02-11T21:29:59;5.20;;;3.05;;
35304;SDS011;26433;48.034;-1.764;2023-02-11T21:35:03;8.07;;;2.87;;
35304;SDS011;26433;48.034;-1.764;2023-02-11T21:40:08;7.07;;;2.75;;
35304;SDS011;26433;48.034;-1.764;2023-02-11T21:45:14;6.35;;;3.10;;
35304;SDS011;26433;48.034;-1.764;2023-02-11T21:50:18;6.78;;;2.75;;
35304;SDS011;26433;48.034;-1.764;2023-02-11T21:55:22;8.60;;;3.37;;
35304;SDS011;26433;48.034;-1.764;2023-02-11T22:00:28;8.93;;;3.15;;
35304;SDS011;26433;48.034;-1.764;2023-02-11T22:05:38;7.30;;;2.90;;
35304;SDS011;26433;48.034;-1.764;2023-02-11T22:10:42;6.07;;;3.20;;
35304;SDS011;26433;48.034;-1.764;2023-02-11T22:15:56;7.70;;;3.13;;
35304;SDS011;26433;48.034;-1.764;2023-02-11T22:21:02;4.80;;;2.87;;
35304;SDS011;26433;48.034;-1.764;2023-02-11T22:26:08;8.43;;;3.30;;
35304;SDS011;26433;48.034;-1.764;2023-02-11T22:31:15;9.65;;;3.90;;
35304;SDS011;26433;48.034;-1.764;2023-02-11T22:36:22;9.32;;;3.28;;
35304;SDS011;26433;48.034;-1.764;2023-02-11T22:41:27;5.68;;;3.22;;
35304;SDS011;26433;48.034;-1.764;2023-02-11T22:46:33;5.15;;;2.97;;
35304;SDS011;26433;48.034;-1.764;2023-02-11T22:51:37;8.27;;;3.10;;
35304;SDS011;26433;48.034;-1.764;2023-02-11T23:01:46;6.47;;;2.58;;
35304;SDS011;26433;48.034;-1.764;2023-02-11T23:06:50;7.80;;;2.83;;
35304;SDS011;26433;48.034;-1.764;2023-02-11T23:11:53;4.60;;;2.67;;
35304;SDS011;26433;48.034;-1.764;2023-02-11T23:17:00;9.57;;;3.47;;
35304;SDS011;26433;48.034;-1.764;2023-02-11T23:22:03;7.43;;;3.50;;
35304;SDS011;26433;48.034;-1.764;2023-02-11T23:27:07;11.98;;;3.87;;
